createdAt,value
2022-10-18T00:00:07.696Z,11.68
2022-10-18T00:02:38.129Z,10.82
2022-10-18T00:05:05.743Z,10.50
2022-10-18T00:07:33.038Z,11.02
2022-10-18T00:10:00.287Z,11.88
2022-10-18T00:12:27.371Z,11.50
2022-10-18T00:14:54.310Z,11.25
2022-10-18T00:17:21.326Z,11.55
2022-10-18T00:19:50.439Z,11.43
2022-10-18T00:22:17.517Z,10.95
2022-10-18T00:24:44.792Z,11.85
2022-10-18T00:27:12.018Z,11.35
2022-10-18T00:29:39.013Z,11.48
2022-10-18T00:32:06.263Z,10.98
2022-10-18T00:34:33.170Z,11.90
2022-10-18T00:37:00.209Z,11.93
2022-10-18T00:39:27.110Z,11.70
2022-10-18T00:41:54.179Z,11.90
2022-10-18T00:44:21.005Z,11.43
2022-10-18T00:46:49.799Z,12.38
2022-10-18T00:49:25.358Z,11.18
2022-10-18T00:51:59.533Z,11.63
2022-10-18T00:54:28.365Z,11.63
2022-10-18T00:56:55.787Z,11.38
2022-10-18T00:59:23.609Z,11.00
2022-10-18T01:01:50.775Z,11.27
2022-10-18T01:04:19.804Z,10.75
2022-10-18T01:07:01.553Z,11.38
2022-10-18T01:09:45.856Z,11.20
2022-10-18T01:12:44.917Z,11.32
2022-10-18T01:15:30.331Z,12.88
2022-10-18T01:18:19.011Z,12.40
2022-10-18T01:21:13.663Z,11.32
2022-10-18T01:24:11.577Z,11.10
2022-10-18T01:26:48.364Z,11.48
2022-10-18T01:29:37.233Z,11.13
2022-10-18T01:32:10.728Z,11.68
2022-10-18T01:34:40.167Z,12.15
2022-10-18T01:37:11.504Z,11.25
2022-10-18T01:39:42.843Z,12.30
2022-10-18T01:42:13.887Z,11.68
2022-10-18T01:44:44.278Z,11.80
2022-10-18T01:47:14.265Z,11.85
2022-10-18T01:49:41.387Z,11.93
2022-10-18T01:52:13.258Z,12.90
2022-10-18T01:54:44.554Z,11.07
2022-10-18T01:57:25.877Z,12.02
2022-10-18T02:00:31.805Z,11.40
2022-10-18T02:03:15.642Z,12.27
2022-10-18T02:05:54.541Z,11.43
2022-10-18T02:08:37.498Z,11.30
2022-10-18T02:11:12.572Z,11.40
2022-10-18T02:13:46.630Z,11.02
2022-10-18T02:16:43.401Z,11.30
2022-10-18T02:19:21.009Z,11.27
2022-10-18T02:21:50.208Z,11.50
2022-10-18T02:24:19.826Z,11.52
2022-10-18T02:26:47.652Z,11.15
2022-10-18T02:29:14.860Z,12.13
2022-10-18T02:31:48.646Z,11.57
2022-10-18T02:34:29.839Z,11.90
2022-10-18T02:37:01.597Z,10.80
2022-10-18T02:39:42.665Z,11.52
2022-10-18T02:42:11.218Z,10.68
2022-10-18T02:44:39.425Z,10.48
2022-10-18T02:47:08.393Z,10.98
2022-10-18T02:49:35.280Z,10.20
2022-10-18T02:52:02.337Z,10.98
2022-10-18T02:54:29.221Z,10.85
2022-10-18T02:56:56.212Z,10.00
2022-10-18T02:59:23.193Z,10.45
2022-10-18T03:01:50.248Z,9.60
2022-10-18T03:04:17.380Z,10.13
2022-10-18T03:06:44.330Z,11.20
2022-10-18T03:09:11.642Z,10.65
2022-10-18T03:11:38.574Z,10.00
2022-10-18T03:14:05.580Z,9.27
2022-10-18T03:16:34.073Z,9.68
2022-10-18T03:19:01.158Z,8.82
2022-10-18T03:21:28.070Z,9.73
2022-10-18T03:23:55.155Z,9.07
2022-10-18T03:26:22.262Z,9.77
2022-10-18T03:28:49.270Z,8.60
2022-10-18T03:31:16.270Z,8.85
2022-10-18T03:33:43.326Z,8.10
2022-10-18T03:36:10.273Z,9.18
2022-10-18T03:38:37.223Z,8.55
2022-10-18T03:41:04.365Z,7.65
2022-10-18T03:43:31.412Z,7.70
2022-10-18T03:45:58.572Z,7.78
2022-10-18T03:48:25.526Z,8.18
2022-10-18T03:50:52.578Z,7.65
2022-10-18T03:53:19.483Z,7.00
2022-10-18T03:55:52.654Z,6.78
2022-10-18T04:00:51.066Z,7.22
2022-10-18T04:03:19.434Z,6.22
2022-10-18T04:05:47.645Z,6.55
2022-10-18T04:08:15.550Z,6.90
2022-10-18T04:10:43.224Z,6.68
2022-10-18T04:13:10.406Z,6.72
2022-10-18T04:15:37.606Z,7.13
2022-10-18T04:18:04.582Z,6.93
2022-10-18T04:20:31.606Z,6.65
2022-10-18T04:22:58.628Z,6.78
2022-10-18T04:25:25.800Z,7.45
2022-10-18T04:27:52.716Z,9.05
2022-10-18T04:30:19.789Z,9.70
2022-10-18T04:32:46.717Z,8.90
2022-10-18T04:35:13.824Z,8.63
2022-10-18T04:37:40.760Z,7.63
2022-10-18T04:40:08.522Z,7.00
2022-10-18T04:42:35.412Z,7.32
2022-10-18T04:45:02.337Z,6.80
2022-10-18T04:47:29.567Z,6.68
2022-10-18T04:49:56.657Z,6.53
2022-10-18T04:52:23.694Z,6.60
2022-10-18T04:54:50.578Z,6.93
2022-10-18T04:57:17.739Z,6.95
2022-10-18T04:59:44.725Z,6.85
2022-10-18T05:02:11.706Z,7.20
2022-10-18T05:04:38.730Z,6.75
2022-10-18T05:07:06.748Z,6.10
2022-10-18T05:09:34.221Z,6.20
2022-10-18T05:12:01.121Z,5.93
2022-10-18T05:14:28.186Z,6.60
2022-10-18T05:16:55.136Z,6.13
2022-10-18T05:19:22.103Z,6.97
2022-10-18T05:21:49.159Z,6.93
2022-10-18T05:24:16.039Z,6.63
2022-10-18T05:26:43.061Z,7.13
2022-10-18T05:29:10.078Z,7.35
2022-10-18T05:31:37.212Z,6.47
2022-10-18T05:34:04.262Z,7.25
2022-10-18T05:36:31.478Z,7.25
2022-10-18T05:39:01.003Z,7.30
2022-10-18T05:41:31.574Z,7.80
2022-10-18T05:43:59.094Z,7.63
2022-10-18T05:46:26.123Z,7.28
2022-10-18T05:48:53.145Z,6.97
2022-10-18T05:51:20.147Z,7.35
2022-10-18T05:53:47.298Z,7.30
2022-10-18T05:56:14.644Z,7.07
2022-10-18T05:58:43.094Z,7.00
2022-10-18T06:01:10.739Z,7.30
2022-10-18T06:03:37.793Z,6.82
2022-10-18T06:06:07.468Z,7.32
2022-10-18T06:08:35.876Z,6.85
2022-10-18T06:11:09.797Z,7.55
2022-10-18T06:13:43.848Z,7.00
2022-10-18T06:16:12.352Z,7.22
2022-10-18T06:18:39.904Z,7.30
2022-10-18T06:21:07.514Z,8.10
2022-10-18T06:23:35.526Z,7.45
2022-10-18T06:26:05.780Z,7.65
2022-10-18T06:28:35.363Z,7.13
2022-10-18T06:31:02.660Z,7.00
2022-10-18T06:33:31.574Z,7.83
2022-10-18T06:36:01.306Z,8.52
2022-10-18T06:38:28.859Z,8.30
2022-10-18T06:40:57.297Z,9.55
2022-10-18T06:43:24.697Z,9.80
2022-10-18T06:45:52.363Z,9.07
2022-10-18T06:50:57.443Z,8.85
2022-10-18T06:53:30.912Z,9.25
2022-10-18T06:56:05.498Z,8.77
2022-10-18T06:58:33.544Z,9.50
2022-10-18T07:01:09.189Z,9.70
2022-10-18T07:03:36.507Z,11.18
2022-10-18T07:06:09.225Z,11.32
2022-10-18T07:11:04.031Z,11.35
2022-10-18T07:13:33.336Z,10.82
2022-10-18T07:16:01.442Z,12.55
2022-10-18T07:18:28.679Z,12.75
2022-10-18T07:20:55.781Z,13.25
2022-10-18T07:23:24.000Z,12.73
2022-10-18T07:25:51.234Z,11.50
2022-10-18T07:28:18.245Z,9.85
2022-10-18T07:30:45.329Z,12.20
2022-10-18T07:33:12.450Z,10.55
2022-10-18T07:35:39.441Z,11.23
2022-10-18T07:38:06.498Z,11.15
2022-10-18T07:40:33.553Z,11.40
2022-10-18T07:43:04.498Z,11.02
2022-10-18T07:45:32.476Z,12.60
2022-10-18T07:47:59.530Z,10.82
2022-10-18T07:50:26.551Z,11.00
2022-10-18T07:52:53.523Z,9.88
2022-10-18T07:55:20.775Z,10.82
2022-10-18T07:57:47.755Z,10.50
2022-10-18T08:00:15.112Z,9.45
2022-10-18T08:02:42.043Z,10.98
2022-10-18T08:05:09.580Z,11.10
2022-10-18T08:07:36.587Z,10.93
2022-10-18T08:10:04.080Z,11.18
2022-10-18T08:12:31.168Z,11.15
2022-10-18T08:14:58.133Z,11.07
2022-10-18T08:17:25.190Z,10.70
2022-10-18T08:20:04.726Z,11.13
2022-10-18T08:22:39.197Z,10.82
2022-10-18T08:25:06.605Z,9.70
2022-10-18T08:27:33.965Z,11.38
2022-10-18T08:30:02.558Z,10.70
2022-10-18T08:32:29.701Z,10.68
2022-10-18T08:34:57.036Z,10.50
2022-10-18T08:37:23.929Z,11.15
2022-10-18T08:39:50.939Z,10.20
2022-10-18T08:42:41.698Z,10.45
2022-10-18T08:45:30.168Z,10.00
2022-10-18T08:47:58.308Z,9.80
2022-10-18T08:50:35.623Z,11.32
2022-10-18T08:53:18.346Z,10.63
2022-10-18T08:55:54.953Z,9.68
2022-10-18T08:58:23.678Z,9.35
2022-10-18T09:00:53.235Z,9.57
2022-10-18T09:03:43.701Z,9.80
2022-10-18T09:06:22.736Z,10.60
2022-10-18T09:09:08.891Z,9.85
2022-10-18T09:11:47.131Z,10.07
2022-10-18T09:14:42.081Z,10.07
2022-10-18T09:17:15.859Z,10.02
2022-10-18T09:20:22.214Z,10.13
2022-10-18T09:23:05.582Z,10.65
2022-10-18T09:25:44.709Z,10.48
2022-10-18T09:28:26.653Z,10.35
2022-10-18T09:31:16.940Z,10.65
2022-10-18T09:34:04.047Z,9.75
2022-10-18T09:36:38.984Z,10.75
2022-10-18T09:39:20.052Z,10.60
2022-10-18T09:41:53.406Z,10.57
2022-10-18T09:44:34.774Z,11.02
2022-10-18T09:47:17.214Z,9.85
2022-10-18T09:50:25.591Z,10.80
2022-10-18T09:53:01.624Z,11.10
2022-10-18T09:55:35.908Z,10.65
2022-10-18T09:58:07.000Z,10.10
2022-10-18T10:00:48.369Z,9.65
2022-10-18T10:03:16.021Z,10.70
2022-10-18T10:05:45.054Z,10.48
2022-10-18T10:08:12.653Z,10.40
2022-10-18T10:10:41.821Z,10.65
2022-10-18T10:13:16.459Z,10.55
2022-10-18T10:15:53.462Z,10.98
2022-10-18T10:18:53.307Z,10.95
2022-10-18T10:21:21.980Z,10.57
2022-10-18T10:23:55.896Z,10.85
2022-10-18T10:26:31.312Z,10.40
2022-10-18T10:28:58.394Z,10.25
2022-10-18T10:31:25.339Z,10.60
2022-10-18T10:34:15.210Z,10.32
2022-10-18T10:36:53.157Z,10.32
2022-10-18T10:39:22.377Z,11.45
2022-10-18T10:41:52.658Z,10.80
2022-10-18T10:44:23.184Z,11.88
2022-10-18T10:46:52.016Z,11.00
2022-10-18T10:49:41.161Z,11.80
2022-10-18T10:52:33.952Z,11.45
2022-10-18T10:55:30.427Z,11.38
2022-10-18T10:57:52.747Z,11.38
2022-10-18T11:00:38.420Z,11.25
2022-10-18T11:03:39.342Z,10.82
2022-10-18T11:06:46.313Z,11.48
2022-10-18T11:09:45.750Z,12.05
2022-10-18T11:12:22.633Z,12.18
2022-10-18T11:14:59.309Z,11.35
2022-10-18T11:17:58.428Z,12.27
2022-10-18T11:20:40.887Z,11.73
2022-10-18T11:23:13.770Z,12.75
2022-10-18T11:28:37.193Z,12.13
2022-10-18T11:31:04.175Z,12.15
2022-10-18T11:34:08.104Z,12.10
2022-10-18T11:36:54.635Z,11.43
2022-10-18T11:39:38.257Z,11.90
2022-10-18T11:42:17.786Z,13.30
2022-10-18T11:45:10.993Z,12.60
2022-10-18T11:47:46.691Z,11.13
2022-10-18T11:50:19.816Z,11.20
2022-10-18T11:53:05.816Z,12.43
2022-10-18T11:56:00.476Z,12.43
2022-10-18T11:58:39.074Z,12.15
2022-10-18T12:01:06.018Z,11.63
2022-10-18T12:03:59.498Z,11.57
2022-10-18T12:09:05.110Z,12.63
2022-10-18T12:11:41.843Z,12.63
2022-10-18T12:14:28.418Z,12.48
2022-10-18T12:17:27.920Z,13.13
2022-10-18T12:19:48.040Z,12.82
2022-10-18T12:22:33.318Z,12.70
2022-10-18T12:25:02.122Z,13.05
2022-10-18T12:27:40.916Z,13.00
2022-10-18T12:30:20.625Z,12.45
2022-10-18T12:33:03.542Z,11.82
2022-10-18T12:36:05.114Z,12.32
2022-10-18T12:38:36.014Z,12.95
2022-10-18T12:41:04.600Z,13.00
2022-10-18T12:43:36.989Z,12.15
2022-10-18T12:46:12.238Z,13.27
2022-10-18T12:48:45.864Z,12.18
2022-10-18T12:51:18.312Z,14.68
2022-10-18T12:54:03.092Z,13.20
2022-10-18T12:56:30.187Z,12.27
2022-10-18T12:59:15.466Z,11.65
2022-10-18T13:01:51.655Z,10.93
2022-10-18T13:04:28.002Z,11.13
2022-10-18T13:06:58.068Z,13.30
2022-10-18T13:09:30.380Z,11.68
2022-10-18T13:12:20.727Z,12.45
2022-10-18T13:15:13.801Z,12.70
2022-10-18T13:18:02.013Z,12.25
2022-10-18T13:20:44.597Z,12.00
2022-10-18T13:23:31.685Z,12.35
2022-10-18T13:26:06.638Z,11.93
2022-10-18T13:28:52.700Z,11.95
2022-10-18T13:31:35.069Z,11.90
2022-10-18T13:34:30.927Z,11.88
2022-10-18T13:37:06.600Z,12.57
2022-10-18T13:39:34.126Z,12.00
2022-10-18T13:42:01.059Z,11.38
2022-10-18T13:44:32.044Z,13.05
2022-10-18T13:46:58.986Z,11.25
2022-10-18T13:49:55.916Z,12.68
2022-10-18T13:52:28.259Z,11.30
2022-10-18T13:55:37.232Z,12.27
2022-10-18T13:58:22.665Z,11.50
2022-10-18T14:01:28.450Z,12.00
2022-10-18T14:04:20.332Z,12.18
2022-10-18T14:06:48.265Z,12.18
2022-10-18T14:09:45.308Z,10.93
2022-10-18T14:12:29.287Z,12.40
2022-10-18T14:17:47.236Z,11.63
2022-10-18T14:20:29.539Z,11.33
2022-10-18T14:23:24.941Z,11.60
2022-10-18T14:26:05.881Z,11.30
2022-10-18T14:28:55.031Z,11.93
2022-10-18T14:31:20.373Z,12.85
2022-10-18T14:33:57.302Z,12.43
2022-10-18T14:36:29.576Z,12.15
2022-10-18T14:38:56.548Z,12.63
2022-10-18T14:41:25.244Z,11.63
2022-10-18T14:44:09.583Z,12.70
2022-10-18T14:46:42.684Z,12.70
2022-10-18T14:49:14.734Z,12.32
2022-10-18T14:51:44.947Z,12.77
2022-10-18T14:54:17.767Z,12.35
2022-10-18T14:56:45.637Z,12.25
2022-10-18T14:59:19.430Z,12.63
2022-10-18T15:01:55.510Z,12.43
2022-10-18T15:04:27.773Z,13.70
2022-10-18T15:06:56.179Z,13.27
2022-10-18T15:09:24.301Z,13.60
2022-10-18T15:11:52.023Z,13.82
2022-10-18T15:14:20.240Z,12.10
2022-10-18T15:16:50.818Z,13.73
2022-10-18T15:19:17.865Z,13.32
2022-10-18T15:25:07.341Z,12.75
2022-10-18T15:27:38.010Z,13.35
2022-10-18T15:30:19.891Z,13.40
2022-10-18T15:32:51.172Z,13.90
2022-10-18T15:35:26.059Z,13.15
2022-10-18T15:37:55.922Z,14.85
2022-10-18T15:40:22.777Z,13.75
2022-10-18T15:42:51.442Z,14.35
2022-10-18T15:45:31.886Z,13.35
2022-10-18T15:48:27.314Z,14.07
2022-10-18T15:51:02.080Z,14.15
2022-10-18T15:53:35.853Z,13.32
2022-10-18T15:56:28.291Z,14.18
2022-10-18T15:58:57.211Z,12.95
2022-10-18T16:01:32.627Z,14.88
2022-10-18T16:04:01.184Z,14.10
2022-10-18T16:06:28.256Z,14.25
2022-10-18T16:08:55.351Z,14.07
2022-10-18T16:11:25.175Z,14.93
2022-10-18T16:13:56.388Z,14.48
2022-10-18T16:16:28.985Z,14.48
2022-10-18T16:18:56.812Z,15.15
2022-10-18T16:21:43.885Z,13.75
2022-10-18T16:24:11.687Z,15.27
2022-10-18T16:26:38.807Z,13.77
2022-10-18T16:29:06.630Z,14.18
2022-10-18T16:31:34.661Z,14.02
2022-10-18T16:34:02.358Z,14.25
2022-10-18T16:36:32.034Z,13.85
2022-10-18T16:39:02.474Z,14.73
2022-10-18T16:41:29.442Z,14.45
2022-10-18T16:43:56.428Z,15.68
2022-10-18T16:46:27.732Z,14.05
2022-10-18T16:48:55.066Z,15.82
2022-10-18T16:51:22.681Z,14.30
2022-10-18T16:53:49.845Z,14.68
2022-10-18T16:56:34.812Z,14.40
2022-10-18T16:59:02.424Z,14.80
2022-10-18T17:01:29.611Z,14.68
2022-10-18T17:03:56.669Z,15.40
2022-10-18T17:06:29.699Z,14.18
2022-10-18T17:08:57.560Z,14.07
2022-10-18T17:11:27.117Z,14.32
2022-10-18T17:13:54.642Z,15.68
2022-10-18T17:16:25.264Z,14.40
2022-10-18T17:18:52.758Z,14.25
2022-10-18T17:21:19.845Z,14.40
2022-10-18T17:23:47.037Z,15.70
2022-10-18T17:26:28.399Z,15.63
2022-10-18T17:29:03.578Z,15.52
2022-10-18T17:31:32.186Z,18.58
2022-10-18T17:34:01.876Z,15.77
2022-10-18T17:36:31.335Z,15.48
2022-10-18T17:38:58.799Z,20.08
2022-10-18T17:41:26.241Z,17.35
2022-10-18T17:43:53.233Z,18.20
2022-10-18T17:46:20.445Z,19.17
2022-10-18T17:48:47.757Z,16.83
2022-10-18T17:51:17.287Z,18.27
2022-10-18T17:53:45.101Z,19.35
2022-10-18T17:56:12.743Z,18.42
2022-10-18T17:58:40.111Z,20.25
2022-10-18T18:01:21.761Z,20.50
2022-10-18T18:03:48.917Z,21.40
2022-10-18T18:06:18.806Z,22.35
2022-10-18T18:08:46.566Z,21.00
2022-10-18T18:11:14.177Z,21.85
2022-10-18T18:13:41.310Z,23.33
2022-10-18T18:16:19.355Z,23.70
2022-10-18T18:18:48.664Z,22.85
2022-10-18T18:21:16.174Z,24.95
2022-10-18T18:23:43.243Z,25.02
2022-10-18T18:26:10.269Z,24.83
2022-10-18T18:28:37.880Z,27.73
2022-10-18T18:31:07.166Z,26.25
2022-10-18T18:33:35.198Z,26.77
2022-10-18T18:36:04.976Z,29.20
2022-10-18T18:38:32.745Z,28.63
2022-10-18T18:41:04.979Z,27.90
2022-10-18T18:43:31.962Z,26.08
2022-10-18T18:45:58.917Z,27.27
2022-10-18T18:48:27.847Z,26.42
2022-10-18T18:50:55.262Z,26.70
2022-10-18T18:53:25.985Z,26.52
2022-10-18T18:56:04.920Z,27.83
2022-10-18T18:58:32.995Z,27.63
2022-10-18T19:01:05.007Z,28.77
2022-10-18T19:03:32.093Z,27.40
2022-10-18T19:06:07.286Z,26.90
2022-10-18T19:08:40.008Z,26.90
2022-10-18T19:11:09.406Z,27.17
2022-10-18T19:13:37.065Z,26.80
2022-10-18T19:16:20.508Z,25.80
2022-10-18T19:19:11.925Z,28.77
2022-10-18T19:22:00.560Z,34.00
2022-10-18T19:24:30.417Z,33.78
2022-10-18T19:27:00.558Z,36.03
2022-10-18T19:29:35.809Z,34.22
2022-10-18T19:32:05.892Z,32.97
2022-10-18T19:34:36.423Z,30.23
2022-10-18T19:37:04.039Z,32.63
2022-10-18T19:39:33.086Z,32.58
2022-10-18T19:42:04.450Z,30.88
2022-10-18T19:44:33.981Z,30.77
2022-10-18T19:47:01.052Z,31.33
2022-10-18T19:49:28.865Z,31.75
2022-10-18T19:51:56.637Z,29.98
2022-10-18T19:54:24.644Z,30.35
2022-10-18T19:56:51.749Z,28.60
2022-10-18T19:59:19.674Z,28.25
2022-10-18T20:01:46.964Z,25.75
2022-10-18T20:04:15.274Z,26.23
2022-10-18T20:06:42.981Z,25.42
2022-10-18T20:09:14.640Z,30.50
2022-10-18T20:11:44.988Z,26.00
2022-10-18T20:14:11.870Z,26.67
2022-10-18T20:16:38.958Z,26.00
2022-10-18T20:19:07.661Z,26.65
2022-10-18T20:21:36.192Z,25.33
2022-10-18T20:24:05.678Z,25.83
2022-10-18T20:26:34.651Z,25.63
2022-10-18T20:29:02.149Z,26.27
2022-10-18T20:31:31.526Z,26.63
2022-10-18T20:34:02.384Z,26.92
2022-10-18T20:36:31.614Z,26.10
2022-10-18T20:38:59.463Z,24.70
2022-10-18T20:41:30.135Z,22.98
2022-10-18T20:43:58.469Z,23.55
2022-10-18T20:46:26.969Z,22.60
2022-10-18T20:48:54.816Z,23.65
2022-10-18T20:51:23.135Z,23.20
2022-10-18T20:53:50.670Z,22.23
2022-10-18T20:56:22.692Z,22.55
2022-10-18T20:58:52.339Z,23.00
2022-10-18T21:01:31.129Z,22.70
2022-10-18T21:04:01.549Z,22.80
2022-10-18T21:06:34.700Z,21.55
2022-10-18T21:11:40.490Z,23.00
2022-10-18T21:14:11.023Z,22.55
2022-10-18T21:16:38.304Z,24.80
2022-10-18T21:19:10.898Z,22.27
2022-10-18T21:21:38.167Z,22.20
2022-10-18T21:24:07.774Z,23.33
2022-10-18T21:26:35.912Z,23.92
2022-10-18T21:29:03.805Z,22.17
2022-10-18T21:31:37.139Z,22.52
2022-10-18T21:34:07.181Z,23.00
2022-10-18T21:36:36.926Z,23.55
2022-10-18T21:39:06.278Z,24.90
2022-10-18T21:41:34.111Z,22.15
2022-10-18T21:44:03.527Z,21.95
2022-10-18T21:46:32.731Z,22.92
2022-10-18T21:48:59.827Z,22.02
2022-10-18T21:51:28.085Z,23.55
2022-10-18T21:53:57.002Z,21.60
2022-10-18T21:56:26.837Z,20.98
2022-10-18T21:58:54.455Z,21.67
2022-10-18T22:01:25.576Z,22.00
2022-10-18T22:03:54.469Z,22.13
2022-10-18T22:06:22.331Z,20.27
2022-10-18T22:08:50.814Z,22.00
2022-10-18T22:11:20.218Z,21.38
2022-10-18T22:13:47.506Z,19.48
2022-10-18T22:16:16.907Z,19.48
2022-10-18T22:18:45.950Z,20.13
2022-10-18T22:21:14.782Z,19.88
2022-10-18T22:23:45.206Z,19.65
2022-10-18T22:26:18.510Z,19.48
2022-10-18T22:28:48.574Z,20.08
2022-10-18T22:31:24.385Z,18.92
2022-10-18T22:33:56.590Z,19.40
2022-10-18T22:36:25.945Z,18.15
2022-10-18T22:38:53.774Z,18.80
2022-10-18T22:41:20.901Z,18.55
2022-10-18T22:43:49.737Z,18.13
2022-10-18T22:46:17.259Z,18.40
2022-10-18T22:48:44.576Z,18.05
2022-10-18T22:51:12.490Z,17.58
2022-10-18T22:53:40.187Z,16.30
2022-10-18T22:56:08.642Z,17.48
2022-10-18T22:58:35.683Z,16.48
2022-10-18T23:01:05.689Z,16.80
2022-10-18T23:03:32.838Z,16.00
2022-10-18T23:06:00.612Z,15.02
2022-10-18T23:08:28.436Z,16.52
2022-10-18T23:10:58.865Z,14.75
2022-10-18T23:13:27.537Z,15.23
2022-10-18T23:16:04.377Z,16.75
2022-10-18T23:18:33.169Z,15.23
2022-10-18T23:21:04.833Z,15.90
2022-10-18T23:23:37.089Z,16.00
2022-10-18T23:26:13.045Z,15.80
2022-10-18T23:28:45.060Z,14.57
2022-10-18T23:31:12.199Z,14.80
2022-10-18T23:33:40.269Z,15.02
2022-10-18T23:36:08.759Z,13.93
2022-10-18T23:38:36.797Z,14.05
2022-10-18T23:41:05.190Z,13.80
2022-10-18T23:43:32.342Z,13.27
2022-10-18T23:45:59.287Z,13.77
2022-10-18T23:48:26.630Z,14.02
2022-10-18T23:50:53.613Z,12.90
2022-10-18T23:53:21.055Z,12.23
2022-10-18T23:55:59.419Z,12.52
2022-10-18T23:58:28.162Z,12.50
